Amber, Oklahoma
Current Conditions -  °F | °C
As of 12:15 PM on Saturday 20 Dec 2014 (Local Time) from KCHK Reporting Station
Scattered Clouds Scattered Clouds  
Wind Chill: 39°   Ceiling: Unl
Heat Index: 43°   Visibility: 7mi
Dew Point: 39°   Wind: 7mph
Humidity: 87%   Direction: 190°S
Pressure: 30.21"   Gusts: NA
Location:  35.16°N, 97.88°W
Report Text: KCHK 201815Z AUTO 19006KT 7SM SCT012 SCT019 06/04 A3021 RMK AO2
Loading
Personal Weather Stations






























Interactive Weather Map New forecast layout! Learn more

10-Day Weather Forecast

Advertisements
Track Severe Weather on mobile